sensor_id;sensor_type;location;lat;lon;timestamp;temperature;humidity
41344;DHT22;27089;50.022;7.604;2023-05-07T00:02:02;12.70;99.90
41344;DHT22;27089;50.022;7.604;2023-05-07T00:04:31;12.60;99.90
41344;DHT22;27089;50.022;7.604;2023-05-07T00:07:02;12.60;99.90
41344;DHT22;27089;50.022;7.604;2023-05-07T00:09:31;12.60;99.90
41344;DHT22;27089;50.022;7.604;2023-05-07T00:11:58;12.70;99.90
41344;DHT22;27089;50.022;7.604;2023-05-07T00:14:32;12.70;99.90
41344;DHT22;27089;50.022;7.604;2023-05-07T00:16:59;12.70;99.90
41344;DHT22;27089;50.022;7.604;2023-05-07T00:19:26;12.80;99.90
41344;DHT22;27089;50.022;7.604;2023-05-07T00:21:53;12.90;99.90
41344;DHT22;27089;50.022;7.604;2023-05-07T00:24:21;13.00;99.90
41344;DHT22;27089;50.022;7.604;2023-05-07T00:26:48;13.00;99.90
41344;DHT22;27089;50.022;7.604;2023-05-07T00:29:16;12.90;99.90
41344;DHT22;27089;50.022;7.604;2023-05-07T00:31:49;12.70;99.90
41344;DHT22;27089;50.022;7.604;2023-05-07T00:34:16;12.70;99.90
41344;DHT22;27089;50.022;7.604;2023-05-07T00:36:43;12.60;99.90
41344;DHT22;27089;50.022;7.604;2023-05-07T00:39:11;12.50;99.90
41344;DHT22;27089;50.022;7.604;2023-05-07T00:41:38;12.40;99.90
41344;DHT22;27089;50.022;7.604;2023-05-07T00:44:06;12.40;99.90
41344;DHT22;27089;50.022;7.604;2023-05-07T00:46:33;12.30;99.90
41344;DHT22;27089;50.022;7.604;2023-05-07T00:49:02;12.30;99.90
41344;DHT22;27089;50.022;7.604;2023-05-07T00:51:30;12.20;99.90
41344;DHT22;27089;50.022;7.604;2023-05-07T00:53:58;12.20;99.90
41344;DHT22;27089;50.022;7.604;2023-05-07T00:56:27;12.20;99.90
41344;DHT22;27089;50.022;7.604;2023-05-07T00:58:56;12.20;99.90
41344;DHT22;27089;50.022;7.604;2023-05-07T01:01:23;12.20;99.90
41344;DHT22;27089;50.022;7.604;2023-05-07T01:03:50;12.10;99.90
41344;DHT22;27089;50.022;7.604;2023-05-07T01:06:19;12.10;99.90
41344;DHT22;27089;50.022;7.604;2023-05-07T01:08:48;12.00;99.90
41344;DHT22;27089;50.022;7.604;2023-05-07T01:11:18;12.00;99.90
41344;DHT22;27089;50.022;7.604;2023-05-07T01:13:47;11.90;99.90
41344;DHT22;27089;50.022;7.604;2023-05-07T01:16:15;11.80;99.90
41344;DHT22;27089;50.022;7.604;2023-05-07T01:18:42;11.80;99.90
41344;DHT22;27089;50.022;7.604;2023-05-07T01:21:11;11.80;99.90
41344;DHT22;27089;50.022;7.604;2023-05-07T01:23:40;11.80;99.90
41344;DHT22;27089;50.022;7.604;2023-05-07T01:26:08;11.80;99.90
41344;DHT22;27089;50.022;7.604;2023-05-07T01:28:35;11.80;99.90
41344;DHT22;27089;50.022;7.604;2023-05-07T01:31:03;11.80;99.90
41344;DHT22;27089;50.022;7.604;2023-05-07T01:33:34;11.80;99.90
41344;DHT22;27089;50.022;7.604;2023-05-07T01:36:02;11.80;99.90
41344;DHT22;27089;50.022;7.604;2023-05-07T01:38:33;11.80;99.90
41344;DHT22;27089;50.022;7.604;2023-05-07T01:41:03;11.90;99.90
41344;DHT22;27089;50.022;7.604;2023-05-07T01:43:31;12.00;99.90
41344;DHT22;27089;50.022;7.604;2023-05-07T01:46:00;12.10;99.90
41344;DHT22;27089;50.022;7.604;2023-05-07T01:48:31;12.20;99.90
41344;DHT22;27089;50.022;7.604;2023-05-07T01:50:59;12.20;99.90
41344;DHT22;27089;50.022;7.604;2023-05-07T01:53:28;12.30;99.90
41344;DHT22;27089;50.022;7.604;2023-05-07T01:55:58;12.20;99.90
41344;DHT22;27089;50.022;7.604;2023-05-07T01:58:28;12.20;99.90
41344;DHT22;27089;50.022;7.604;2023-05-07T02:00:59;12.10;99.90
41344;DHT22;27089;50.022;7.604;2023-05-07T02:03:26;11.90;99.90
41344;DHT22;27089;50.022;7.604;2023-05-07T02:05:54;11.80;99.90
41344;DHT22;27089;50.022;7.604;2023-05-07T02:08:22;11.70;99.90
41344;DHT22;27089;50.022;7.604;2023-05-07T02:10:49;11.60;99.90
41344;DHT22;27089;50.022;7.604;2023-05-07T02:13:17;11.50;99.90
41344;DHT22;27089;50.022;7.604;2023-05-07T02:15:47;11.40;99.90
41344;DHT22;27089;50.022;7.604;2023-05-07T02:18:16;11.40;99.90
41344;DHT22;27089;50.022;7.604;2023-05-07T02:20:45;11.40;99.90
41344;DHT22;27089;50.022;7.604;2023-05-07T02:23:13;11.50;99.90
41344;DHT22;27089;50.022;7.604;2023-05-07T02:25:40;11.50;99.90
41344;DHT22;27089;50.022;7.604;2023-05-07T02:28:07;11.60;99.90
41344;DHT22;27089;50.022;7.604;2023-05-07T02:30:35;11.70;99.90
41344;DHT22;27089;50.022;7.604;2023-05-07T02:33:06;11.70;99.90
41344;DHT22;27089;50.022;7.604;2023-05-07T02:35:34;11.70;99.90
41344;DHT22;27089;50.022;7.604;2023-05-07T02:38:02;11.70;99.90
41344;DHT22;27089;50.022;7.604;2023-05-07T02:40:29;11.60;99.90
41344;DHT22;27089;50.022;7.604;2023-05-07T02:42:59;11.60;99.90
41344;DHT22;27089;50.022;7.604;2023-05-07T02:45:26;11.50;99.90
41344;DHT22;27089;50.022;7.604;2023-05-07T02:47:54;11.40;99.90
41344;DHT22;27089;50.022;7.604;2023-05-07T02:50:22;11.40;99.90
41344;DHT22;27089;50.022;7.604;2023-05-07T02:52:50;11.30;99.90
41344;DHT22;27089;50.022;7.604;2023-05-07T02:55:18;11.20;99.90
41344;DHT22;27089;50.022;7.604;2023-05-07T02:57:45;11.20;99.90
41344;DHT22;27089;50.022;7.604;2023-05-07T03:00:14;11.10;99.90
41344;DHT22;27089;50.022;7.604;2023-05-07T03:02:42;11.10;99.90
41344;DHT22;27089;50.022;7.604;2023-05-07T03:05:12;11.10;99.90
41344;DHT22;27089;50.022;7.604;2023-05-07T03:07:41;11.10;99.90
41344;DHT22;27089;50.022;7.604;2023-05-07T03:10:11;11.10;99.90
41344;DHT22;27089;50.022;7.604;2023-05-07T03:12:40;11.10;99.90
41344;DHT22;27089;50.022;7.604;2023-05-07T03:15:09;11.20;99.90
41344;DHT22;27089;50.022;7.604;2023-05-07T03:17:37;11.20;99.90
41344;DHT22;27089;50.022;7.604;2023-05-07T03:20:05;11.40;99.90
41344;DHT22;27089;50.022;7.604;2023-05-07T03:22:32;11.60;99.90
41344;DHT22;27089;50.022;7.604;2023-05-07T03:25:01;11.90;99.90
41344;DHT22;27089;50.022;7.604;2023-05-07T03:27:28;11.90;99.90
41344;DHT22;27089;50.022;7.604;2023-05-07T03:29:54;11.80;99.90
41344;DHT22;27089;50.022;7.604;2023-05-07T03:32:21;11.70;99.90
41344;DHT22;27089;50.022;7.604;2023-05-07T03:34:48;11.80;99.90
41344;DHT22;27089;50.022;7.604;2023-05-07T03:37:15;11.90;99.90
41344;DHT22;27089;50.022;7.604;2023-05-07T03:39:42;12.10;99.90
41344;DHT22;27089;50.022;7.604;2023-05-07T03:42:10;12.20;99.90
41344;DHT22;27089;50.022;7.604;2023-05-07T03:44:37;12.40;99.90
41344;DHT22;27089;50.022;7.604;2023-05-07T03:47:04;12.50;99.90
41344;DHT22;27089;50.022;7.604;2023-05-07T03:49:31;12.50;99.90
41344;DHT22;27089;50.022;7.604;2023-05-07T03:51:58;12.50;99.90
41344;DHT22;27089;50.022;7.604;2023-05-07T03:54:25;12.50;99.90
41344;DHT22;27089;50.022;7.604;2023-05-07T03:56:52;12.50;99.90
41344;DHT22;27089;50.022;7.604;2023-05-07T03:59:21;12.50;99.90
41344;DHT22;27089;50.022;7.604;2023-05-07T04:01:48;12.50;99.90
41344;DHT22;27089;50.022;7.604;2023-05-07T04:04:15;12.50;99.90
41344;DHT22;27089;50.022;7.604;2023-05-07T04:06:42;12.50;99.90
41344;DHT22;27089;50.022;7.604;2023-05-07T04:09:09;12.40;99.90
41344;DHT22;27089;50.022;7.604;2023-05-07T04:11:36;12.40;99.90
41344;DHT22;27089;50.022;7.604;2023-05-07T04:14:05;12.30;99.90
41344;DHT22;27089;50.022;7.604;2023-05-07T04:16:34;12.20;99.90
41344;DHT22;27089;50.022;7.604;2023-05-07T04:19:01;12.20;99.90
41344;DHT22;27089;50.022;7.604;2023-05-07T04:21:28;12.10;99.90
41344;DHT22;27089;50.022;7.604;2023-05-07T04:23:56;12.10;99.90
41344;DHT22;27089;50.022;7.604;2023-05-07T04:26:23;12.10;99.90
41344;DHT22;27089;50.022;7.604;2023-05-07T04:28:50;12.10;99.90
41344;DHT22;27089;50.022;7.604;2023-05-07T04:31:17;12.10;99.90
41344;DHT22;27089;50.022;7.604;2023-05-07T04:33:45;12.10;99.90
41344;DHT22;27089;50.022;7.604;2023-05-07T04:36:12;12.10;99.90
41344;DHT22;27089;50.022;7.604;2023-05-07T04:38:39;12.10;99.90
41344;DHT22;27089;50.022;7.604;2023-05-07T04:41:08;12.10;99.90
41344;DHT22;27089;50.022;7.604;2023-05-07T04:43:35;12.10;99.90
41344;DHT22;27089;50.022;7.604;2023-05-07T04:46:02;12.20;99.90
41344;DHT22;27089;50.022;7.604;2023-05-07T04:48:29;12.20;99.90
41344;DHT22;27089;50.022;7.604;2023-05-07T04:50:57;12.30;99.90
41344;DHT22;27089;50.022;7.604;2023-05-07T04:53:24;12.30;99.90
41344;DHT22;27089;50.022;7.604;2023-05-07T04:55:55;12.40;99.90
41344;DHT22;27089;50.022;7.604;2023-05-07T04:58:22;12.40;99.90
41344;DHT22;27089;50.022;7.604;2023-05-07T05:00:49;12.50;99.90
41344;DHT22;27089;50.022;7.604;2023-05-07T05:03:16;12.50;99.90
41344;DHT22;27089;50.022;7.604;2023-05-07T05:05:43;12.60;99.90
41344;DHT22;27089;50.022;7.604;2023-05-07T05:08:12;12.80;99.90
41344;DHT22;27089;50.022;7.604;2023-05-07T05:10:39;13.00;99.90
41344;DHT22;27089;50.022;7.604;2023-05-07T05:13:07;13.90;99.90
41344;DHT22;27089;50.022;7.604;2023-05-07T05:15:34;14.50;99.90
41344;DHT22;27089;50.022;7.604;2023-05-07T05:18:01;14.70;99.90
41344;DHT22;27089;50.022;7.604;2023-05-07T05:20:28;14.80;99.90
41344;DHT22;27089;50.022;7.604;2023-05-07T05:22:55;15.00;99.90
41344;DHT22;27089;50.022;7.604;2023-05-07T05:25:24;15.10;99.90
41344;DHT22;27089;50.022;7.604;2023-05-07T05:27:50;15.00;99.90
41344;DHT22;27089;50.022;7.604;2023-05-07T05:30:17;15.00;99.90
41344;DHT22;27089;50.022;7.604;2023-05-07T05:32:44;14.90;99.90
41344;DHT22;27089;50.022;7.604;2023-05-07T05:35:11;14.90;99.90
41344;DHT22;27089;50.022;7.604;2023-05-07T05:37:38;14.80;99.90
41344;DHT22;27089;50.022;7.604;2023-05-07T05:40:06;14.90;99.90
41344;DHT22;27089;50.022;7.604;2023-05-07T05:42:35;15.20;99.90
41344;DHT22;27089;50.022;7.604;2023-05-07T05:45:02;15.50;99.90
41344;DHT22;27089;50.022;7.604;2023-05-07T05:47:29;15.70;99.90
41344;DHT22;27089;50.022;7.604;2023-05-07T05:49:56;15.80;99.90
41344;DHT22;27089;50.022;7.604;2023-05-07T05:52:23;15.90;99.90
41344;DHT22;27089;50.022;7.604;2023-05-07T05:54:50;15.90;99.90
41344;DHT22;27089;50.022;7.604;2023-05-07T05:57:17;15.90;99.90
41344;DHT22;27089;50.022;7.604;2023-05-07T05:59:46;15.90;99.90
41344;DHT22;27089;50.022;7.604;2023-05-07T06:02:13;16.00;99.90
41344;DHT22;27089;50.022;7.604;2023-05-07T06:04:40;16.10;99.90
41344;DHT22;27089;50.022;7.604;2023-05-07T06:07:08;16.30;99.90
41344;DHT22;27089;50.022;7.604;2023-05-07T06:09:35;16.40;99.90
41344;DHT22;27089;50.022;7.604;2023-05-07T06:12:02;16.50;99.90
41344;DHT22;27089;50.022;7.604;2023-05-07T06:14:29;16.50;99.90
41344;DHT22;27089;50.022;7.604;2023-05-07T06:16:58;16.60;99.90
41344;DHT22;27089;50.022;7.604;2023-05-07T06:19:25;16.70;99.90
41344;DHT22;27089;50.022;7.604;2023-05-07T06:21:53;16.70;99.90
41344;DHT22;27089;50.022;7.604;2023-05-07T06:24:22;16.70;99.90
41344;DHT22;27089;50.022;7.604;2023-05-07T06:26:49;16.70;99.90
41344;DHT22;27089;50.022;7.604;2023-05-07T06:29:16;16.60;99.90
41344;DHT22;27089;50.022;7.604;2023-05-07T06:31:43;16.50;99.90
41344;DHT22;27089;50.022;7.604;2023-05-07T06:34:11;16.40;99.90
41344;DHT22;27089;50.022;7.604;2023-05-07T06:36:39;16.50;99.90
41344;DHT22;27089;50.022;7.604;2023-05-07T06:39:07;16.50;99.90
41344;DHT22;27089;50.022;7.604;2023-05-07T06:41:33;16.40;99.90
41344;DHT22;27089;50.022;7.604;2023-05-07T06:44:01;16.40;99.90
41344;DHT22;27089;50.022;7.604;2023-05-07T06:46:28;16.40;99.90
41344;DHT22;27089;50.022;7.604;2023-05-07T06:48:55;16.50;99.90
41344;DHT22;27089;50.022;7.604;2023-05-07T06:51:24;16.70;99.90
41344;DHT22;27089;50.022;7.604;2023-05-07T06:53:52;16.70;99.90
41344;DHT22;27089;50.022;7.604;2023-05-07T06:56:19;16.70;99.90
41344;DHT22;27089;50.022;7.604;2023-05-07T06:58:46;16.70;99.90
41344;DHT22;27089;50.022;7.604;2023-05-07T07:01:13;16.80;99.90
41344;DHT22;27089;50.022;7.604;2023-05-07T07:03:40;16.80;99.90
41344;DHT22;27089;50.022;7.604;2023-05-07T07:06:07;16.60;99.90
41344;DHT22;27089;50.022;7.604;2023-05-07T07:08:36;16.50;99.90
41344;DHT22;27089;50.022;7.604;2023-05-07T07:11:04;16.60;99.90
41344;DHT22;27089;50.022;7.604;2023-05-07T07:13:31;16.80;99.90
41344;DHT22;27089;50.022;7.604;2023-05-07T07:15:58;16.80;99.90
41344;DHT22;27089;50.022;7.604;2023-05-07T07:18:25;17.00;99.90
41344;DHT22;27089;50.022;7.604;2023-05-07T07:20:52;17.10;99.90
41344;DHT22;27089;50.022;7.604;2023-05-07T07:23:19;17.30;99.90
41344;DHT22;27089;50.022;7.604;2023-05-07T07:25:47;17.50;99.90
41344;DHT22;27089;50.022;7.604;2023-05-07T07:28:14;17.70;99.90
41344;DHT22;27089;50.022;7.604;2023-05-07T07:30:41;18.00;99.90
41344;DHT22;27089;50.022;7.604;2023-05-07T07:33:08;18.10;99.90
41344;DHT22;27089;50.022;7.604;2023-05-07T07:35:35;18.40;99.90
41344;DHT22;27089;50.022;7.604;2023-05-07T07:38:02;18.60;99.90
41344;DHT22;27089;50.022;7.604;2023-05-07T07:40:29;18.90;99.90
41344;DHT22;27089;50.022;7.604;2023-05-07T07:42:57;19.50;99.90
41344;DHT22;27089;50.022;7.604;2023-05-07T07:45:26;19.90;99.90
41344;DHT22;27089;50.022;7.604;2023-05-07T07:47:53;20.80;99.90
41344;DHT22;27089;50.022;7.604;2023-05-07T07:50:20;22.50;99.90
41344;DHT22;27089;50.022;7.604;2023-05-07T07:52:48;23.50;99.90
41344;DHT22;27089;50.022;7.604;2023-05-07T07:55:15;24.40;99.90
41344;DHT22;27089;50.022;7.604;2023-05-07T07:57:46;25.30;99.90
41344;DHT22;27089;50.022;7.604;2023-05-07T08:00:16;24.30;99.90
41344;DHT22;27089;50.022;7.604;2023-05-07T08:02:43;23.20;99.90
41344;DHT22;27089;50.022;7.604;2023-05-07T08:05:11;22.80;99.90
41344;DHT22;27089;50.022;7.604;2023-05-07T08:07:38;24.40;99.90
41344;DHT22;27089;50.022;7.604;2023-05-07T08:10:05;25.40;99.90
41344;DHT22;27089;50.022;7.604;2023-05-07T08:12:32;25.80;99.90
41344;DHT22;27089;50.022;7.604;2023-05-07T08:15:00;25.90;99.90
41344;DHT22;27089;50.022;7.604;2023-05-07T08:17:28;26.40;99.90
41344;DHT22;27089;50.022;7.604;2023-05-07T08:19:55;27.10;99.90
41344;DHT22;27089;50.022;7.604;2023-05-07T08:22:22;27.10;99.90
41344;DHT22;27089;50.022;7.604;2023-05-07T08:24:49;26.20;99.90
41344;DHT22;27089;50.022;7.604;2023-05-07T08:27:17;25.90;99.90
41344;DHT22;27089;50.022;7.604;2023-05-07T08:29:44;26.00;99.90
41344;DHT22;27089;50.022;7.604;2023-05-07T08:32:13;26.30;99.90
41344;DHT22;27089;50.022;7.604;2023-05-07T08:34:41;26.10;99.90
41344;DHT22;27089;50.022;7.604;2023-05-07T08:37:08;26.00;99.90
41344;DHT22;27089;50.022;7.604;2023-05-07T08:39:35;25.70;99.90
41344;DHT22;27089;50.022;7.604;2023-05-07T08:42:04;25.80;99.90
41344;DHT22;27089;50.022;7.604;2023-05-07T08:44:33;26.20;99.90
41344;DHT22;27089;50.022;7.604;2023-05-07T08:47:01;26.20;99.90
41344;DHT22;27089;50.022;7.604;2023-05-07T08:49:28;26.20;99.90
41344;DHT22;27089;50.022;7.604;2023-05-07T08:51:58;25.90;99.90
41344;DHT22;27089;50.022;7.604;2023-05-07T08:54:26;26.00;99.90
41344;DHT22;27089;50.022;7.604;2023-05-07T08:56:54;26.20;99.90
41344;DHT22;27089;50.022;7.604;2023-05-07T08:59:21;26.30;99.90
41344;DHT22;27089;50.022;7.604;2023-05-07T09:01:49;26.20;99.90
41344;DHT22;27089;50.022;7.604;2023-05-07T09:04:16;25.70;99.70
41344;DHT22;27089;50.022;7.604;2023-05-07T09:06:43;25.00;99.90
41344;DHT22;27089;50.022;7.604;2023-05-07T09:09:14;24.70;99.90
41344;DHT22;27089;50.022;7.604;2023-05-07T09:11:44;24.50;99.90
41344;DHT22;27089;50.022;7.604;2023-05-07T09:14:11;24.10;99.90
41344;DHT22;27089;50.022;7.604;2023-05-07T09:16:38;23.70;99.90
41344;DHT22;27089;50.022;7.604;2023-05-07T09:19:05;23.60;99.90
41344;DHT22;27089;50.022;7.604;2023-05-07T09:21:36;23.50;99.90
41344;DHT22;27089;50.022;7.604;2023-05-07T09:24:03;23.20;99.90
41344;DHT22;27089;50.022;7.604;2023-05-07T09:26:31;22.90;99.90
41344;DHT22;27089;50.022;7.604;2023-05-07T09:28:59;22.30;99.90
41344;DHT22;27089;50.022;7.604;2023-05-07T09:31:26;22.20;99.90
41344;DHT22;27089;50.022;7.604;2023-05-07T09:33:53;22.30;99.90
41344;DHT22;27089;50.022;7.604;2023-05-07T09:36:21;22.40;99.90
41344;DHT22;27089;50.022;7.604;2023-05-07T09:38:48;22.30;99.90
41344;DHT22;27089;50.022;7.604;2023-05-07T09:41:16;22.30;99.90
41344;DHT22;27089;50.022;7.604;2023-05-07T09:43:45;22.60;99.90
41344;DHT22;27089;50.022;7.604;2023-05-07T09:46:13;23.10;99.90
41344;DHT22;27089;50.022;7.604;2023-05-07T09:48:42;22.90;99.90
41344;DHT22;27089;50.022;7.604;2023-05-07T09:51:18;22.80;99.90
41344;DHT22;27089;50.022;7.604;2023-05-07T09:53:48;22.50;99.90
41344;DHT22;27089;50.022;7.604;2023-05-07T09:56:18;22.50;99.90
41344;DHT22;27089;50.022;7.604;2023-05-07T09:58:47;22.90;99.90
41344;DHT22;27089;50.022;7.604;2023-05-07T10:01:17;23.10;99.90
41344;DHT22;27089;50.022;7.604;2023-05-07T10:03:45;23.40;99.90
41344;DHT22;27089;50.022;7.604;2023-05-07T10:06:13;23.50;99.90
41344;DHT22;27089;50.022;7.604;2023-05-07T10:08:42;23.50;99.90
41344;DHT22;27089;50.022;7.604;2023-05-07T10:11:09;23.90;99.90
41344;DHT22;27089;50.022;7.604;2023-05-07T10:13:37;24.20;99.90
41344;DHT22;27089;50.022;7.604;2023-05-07T10:16:06;24.10;99.90
41344;DHT22;27089;50.022;7.604;2023-05-07T10:18:33;23.80;99.90
41344;DHT22;27089;50.022;7.604;2023-05-07T10:21:04;23.60;99.90
41344;DHT22;27089;50.022;7.604;2023-05-07T10:23:33;23.50;99.90
41344;DHT22;27089;50.022;7.604;2023-05-07T10:26:03;22.90;99.90
41344;DHT22;27089;50.022;7.604;2023-05-07T10:28:34;22.60;99.90
41344;DHT22;27089;50.022;7.604;2023-05-07T10:31:15;22.40;99.90
41344;DHT22;27089;50.022;7.604;2023-05-07T10:33:47;22.10;99.90
41344;DHT22;27089;50.022;7.604;2023-05-07T10:36:16;22.20;99.90
41344;DHT22;27089;50.022;7.604;2023-05-07T10:38:43;22.50;99.90
41344;DHT22;27089;50.022;7.604;2023-05-07T10:41:11;22.60;99.90
41344;DHT22;27089;50.022;7.604;2023-05-07T10:43:39;22.70;99.90
41344;DHT22;27089;50.022;7.604;2023-05-07T10:46:14;22.50;99.90
41344;DHT22;27089;50.022;7.604;2023-05-07T10:49:07;22.50;99.90
41344;DHT22;27089;50.022;7.604;2023-05-07T10:51:34;22.20;99.90
41344;DHT22;27089;50.022;7.604;2023-05-07T10:54:21;22.20;99.90
41344;DHT22;27089;50.022;7.604;2023-05-07T10:56:49;22.50;99.90
41344;DHT22;27089;50.022;7.604;2023-05-07T10:59:34;22.80;99.90
41344;DHT22;27089;50.022;7.604;2023-05-07T11:02:09;22.90;99.90
41344;DHT22;27089;50.022;7.604;2023-05-07T11:04:37;22.80;99.90
41344;DHT22;27089;50.022;7.604;2023-05-07T11:10:00;23.00;99.90
41344;DHT22;27089;50.022;7.604;2023-05-07T11:12:54;23.20;99.90
41344;DHT22;27089;50.022;7.604;2023-05-07T11:15:42;23.60;99.90
41344;DHT22;27089;50.022;7.604;2023-05-07T11:18:12;23.70;99.90
41344;DHT22;27089;50.022;7.604;2023-05-07T11:20:48;23.50;99.90
41344;DHT22;27089;50.022;7.604;2023-05-07T11:26:46;24.20;99.90
41344;DHT22;27089;50.022;7.604;2023-05-07T11:29:14;24.30;99.90
41344;DHT22;27089;50.022;7.604;2023-05-07T11:31:42;24.30;99.90
41344;DHT22;27089;50.022;7.604;2023-05-07T11:34:11;23.90;99.40
41344;DHT22;27089;50.022;7.604;2023-05-07T11:36:42;23.60;99.90
41344;DHT22;27089;50.022;7.604;2023-05-07T11:39:29;23.30;99.90
41344;DHT22;27089;50.022;7.604;2023-05-07T11:41:57;23.70;99.90
41344;DHT22;27089;50.022;7.604;2023-05-07T11:44:24;23.70;99.90
41344;DHT22;27089;50.022;7.604;2023-05-07T11:46:51;23.80;99.90
41344;DHT22;27089;50.022;7.604;2023-05-07T11:49:19;24.20;99.90
41344;DHT22;27089;50.022;7.604;2023-05-07T11:51:46;24.40;99.90
41344;DHT22;27089;50.022;7.604;2023-05-07T11:54:16;24.30;99.90
41344;DHT22;27089;50.022;7.604;2023-05-07T11:56:44;24.50;99.40
41344;DHT22;27089;50.022;7.604;2023-05-07T11:59:17;24.60;98.80
41344;DHT22;27089;50.022;7.604;2023-05-07T12:01:46;24.00;99.90
41344;DHT22;27089;50.022;7.604;2023-05-07T12:04:13;23.70;99.90
41344;DHT22;27089;50.022;7.604;2023-05-07T12:06:42;23.60;99.90
41344;DHT22;27089;50.022;7.604;2023-05-07T12:09:09;23.60;99.90
41344;DHT22;27089;50.022;7.604;2023-05-07T12:11:37;23.40;99.90
41344;DHT22;27089;50.022;7.604;2023-05-07T12:14:06;23.10;99.90
41344;DHT22;27089;50.022;7.604;2023-05-07T12:16:33;23.10;99.90
41344;DHT22;27089;50.022;7.604;2023-05-07T12:19:00;23.10;99.90
41344;DHT22;27089;50.022;7.604;2023-05-07T12:21:27;22.90;99.90
41344;DHT22;27089;50.022;7.604;2023-05-07T12:23:56;22.70;99.90
41344;DHT22;27089;50.022;7.604;2023-05-07T12:26:24;22.60;99.90
41344;DHT22;27089;50.022;7.604;2023-05-07T12:28:51;22.50;99.90
41344;DHT22;27089;50.022;7.604;2023-05-07T12:31:18;22.60;99.90
41344;DHT22;27089;50.022;7.604;2023-05-07T12:33:45;22.40;99.90
41344;DHT22;27089;50.022;7.604;2023-05-07T12:36:13;22.30;99.90
41344;DHT22;27089;50.022;7.604;2023-05-07T12:38:40;22.40;99.90
41344;DHT22;27089;50.022;7.604;2023-05-07T12:41:09;22.60;99.90
41344;DHT22;27089;50.022;7.604;2023-05-07T12:43:37;22.70;99.90
41344;DHT22;27089;50.022;7.604;2023-05-07T12:46:06;22.50;99.90
41344;DHT22;27089;50.022;7.604;2023-05-07T12:48:33;22.70;99.90
41344;DHT22;27089;50.022;7.604;2023-05-07T12:51:01;22.90;99.90
41344;DHT22;27089;50.022;7.604;2023-05-07T12:53:29;23.00;99.90
41344;DHT22;27089;50.022;7.604;2023-05-07T12:55:58;23.10;99.90
41344;DHT22;27089;50.022;7.604;2023-05-07T12:58:28;23.10;99.90
41344;DHT22;27089;50.022;7.604;2023-05-07T13:00:57;23.20;99.90
41344;DHT22;27089;50.022;7.604;2023-05-07T13:03:26;23.00;99.90
41344;DHT22;27089;50.022;7.604;2023-05-07T13:05:55;23.20;99.90
41344;DHT22;27089;50.022;7.604;2023-05-07T13:08:27;23.60;99.90
41344;DHT22;27089;50.022;7.604;2023-05-07T13:10:54;23.80;99.90
41344;DHT22;27089;50.022;7.604;2023-05-07T13:13:21;23.60;99.90
41344;DHT22;27089;50.022;7.604;2023-05-07T13:15:49;23.50;99.90
41344;DHT22;27089;50.022;7.604;2023-05-07T13:18:17;23.20;99.90
41344;DHT22;27089;50.022;7.604;2023-05-07T13:20:44;23.20;99.90
41344;DHT22;27089;50.022;7.604;2023-05-07T13:23:11;23.00;99.90
41344;DHT22;27089;50.022;7.604;2023-05-07T13:25:38;23.10;99.90
41344;DHT22;27089;50.022;7.604;2023-05-07T13:28:05;23.10;99.90
41344;DHT22;27089;50.022;7.604;2023-05-07T13:30:32;23.20;99.90
41344;DHT22;27089;50.022;7.604;2023-05-07T13:33:00;23.00;99.90
41344;DHT22;27089;50.022;7.604;2023-05-07T13:35:27;22.90;99.90
41344;DHT22;27089;50.022;7.604;2023-05-07T13:37:54;22.40;99.90
41344;DHT22;27089;50.022;7.604;2023-05-07T13:40:22;22.50;99.90
41344;DHT22;27089;50.022;7.604;2023-05-07T13:42:49;22.80;99.90
41344;DHT22;27089;50.022;7.604;2023-05-07T13:45:17;23.00;99.90
41344;DHT22;27089;50.022;7.604;2023-05-07T13:47:44;23.00;99.90
41344;DHT22;27089;50.022;7.604;2023-05-07T13:50:12;23.20;99.90
41344;DHT22;27089;50.022;7.604;2023-05-07T13:52:41;23.40;99.90
41344;DHT22;27089;50.022;7.604;2023-05-07T13:55:11;23.50;99.90
41344;DHT22;27089;50.022;7.604;2023-05-07T13:57:38;23.40;99.50
41344;DHT22;27089;50.022;7.604;2023-05-07T14:00:06;23.20;99.90
41344;DHT22;27089;50.022;7.604;2023-05-07T14:02:34;23.20;99.90
41344;DHT22;27089;50.022;7.604;2023-05-07T14:05:01;23.30;99.90
41344;DHT22;27089;50.022;7.604;2023-05-07T14:07:29;23.40;99.90
41344;DHT22;27089;50.022;7.604;2023-05-07T14:09:57;23.50;99.90
41344;DHT22;27089;50.022;7.604;2023-05-07T14:12:24;23.70;99.90
41344;DHT22;27089;50.022;7.604;2023-05-07T14:14:51;23.90;99.90
41344;DHT22;27089;50.022;7.604;2023-05-07T14:17:18;23.90;99.90
41344;DHT22;27089;50.022;7.604;2023-05-07T14:19:45;23.60;99.90
41344;DHT22;27089;50.022;7.604;2023-05-07T14:22:13;23.30;99.90
41344;DHT22;27089;50.022;7.604;2023-05-07T14:24:42;23.10;99.90
41344;DHT22;27089;50.022;7.604;2023-05-07T14:27:09;22.90;99.90
41344;DHT22;27089;50.022;7.604;2023-05-07T14:29:36;22.70;99.90
41344;DHT22;27089;50.022;7.604;2023-05-07T14:32:04;22.70;99.90
41344;DHT22;27089;50.022;7.604;2023-05-07T14:34:31;22.60;99.90
41344;DHT22;27089;50.022;7.604;2023-05-07T14:36:59;22.60;99.90
41344;DHT22;27089;50.022;7.604;2023-05-07T14:39:26;22.70;99.90
41344;DHT22;27089;50.022;7.604;2023-05-07T14:41:54;22.60;99.90
41344;DHT22;27089;50.022;7.604;2023-05-07T14:44:21;22.40;99.90
41344;DHT22;27089;50.022;7.604;2023-05-07T14:46:48;22.20;99.90
41344;DHT22;27089;50.022;7.604;2023-05-07T14:49:15;22.20;99.90
41344;DHT22;27089;50.022;7.604;2023-05-07T14:51:43;22.10;99.90
41344;DHT22;27089;50.022;7.604;2023-05-07T14:54:11;22.10;99.90
41344;DHT22;27089;50.022;7.604;2023-05-07T14:56:38;22.00;99.90
41344;DHT22;27089;50.022;7.604;2023-05-07T14:59:07;21.80;99.90
41344;DHT22;27089;50.022;7.604;2023-05-07T15:01:34;21.50;99.90
41344;DHT22;27089;50.022;7.604;2023-05-07T15:04:03;21.50;99.90
41344;DHT22;27089;50.022;7.604;2023-05-07T15:06:31;21.40;99.90
41344;DHT22;27089;50.022;7.604;2023-05-07T15:08:58;21.40;99.90
41344;DHT22;27089;50.022;7.604;2023-05-07T15:11:26;21.30;99.90
41344;DHT22;27089;50.022;7.604;2023-05-07T15:13:53;21.20;99.90
41344;DHT22;27089;50.022;7.604;2023-05-07T15:16:21;21.20;99.90
41344;DHT22;27089;50.022;7.604;2023-05-07T15:18:48;21.10;99.90
41344;DHT22;27089;50.022;7.604;2023-05-07T15:21:16;21.10;99.90
41344;DHT22;27089;50.022;7.604;2023-05-07T15:23:43;21.00;99.90
41344;DHT22;27089;50.022;7.604;2023-05-07T15:26:10;20.90;99.90
41344;DHT22;27089;50.022;7.604;2023-05-07T15:28:37;20.80;99.90
41344;DHT22;27089;50.022;7.604;2023-05-07T15:31:05;20.80;99.90
41344;DHT22;27089;50.022;7.604;2023-05-07T15:33:34;20.80;99.90
41344;DHT22;27089;50.022;7.604;2023-05-07T15:36:01;20.90;99.90
41344;DHT22;27089;50.022;7.604;2023-05-07T15:38:28;20.80;99.90
41344;DHT22;27089;50.022;7.604;2023-05-07T15:40:55;20.90;99.90
41344;DHT22;27089;50.022;7.604;2023-05-07T15:43:22;20.90;99.90